Time;durP1;ratioP1;P1;durP2;ratioP2;P2;SDS_P1;SDS_P2;PMS_P1;PMS_P2;Temp;Humidity;BMP_temperature;BMP_pressure;BME280_temperature;BME280_humidity;BME280_pressure;Samples;Min_cycle;Max_cycle;Signal;HPM_P1;HPM_P2
2023/08/19 00:00:00;;;;;;;6.60;6.10;;;;;;;;;;5141073;27;20255;-64
2023/08/19 00:02:27;;;;;;;6.65;6.13;;;;;;;;;;5140908;27;20202;-64
2023/08/19 00:04:56;;;;;;;6.90;6.20;;;;;;;;;;5141019;27;20233;-64
2023/08/19 00:07:24;;;;;;;7.25;6.50;;;;;;;;;;5140433;27;20202;-64
2023/08/19 00:09:51;;;;;;;6.25;5.85;;;;;;;;;;5141058;27;20440;-65
2023/08/19 00:12:21;;;;;;;6.20;5.70;;;;;;;;;;5141096;27;20271;-65
2023/08/19 00:14:51;;;;;;;6.32;5.93;;;;;;;;;;5140857;27;20206;-65
2023/08/19 00:17:19;;;;;;;6.10;5.70;;;;;;;;;;5139907;27;20202;-64
2023/08/19 00:19:46;;;;;;;6.18;5.78;;;;;;;;;;5140101;27;20222;-64
2023/08/19 00:22:15;;;;;;;6.57;6.07;;;;;;;;;;5140405;27;20286;-64
2023/08/19 00:24:43;;;;;;;5.97;5.53;;;;;;;;;;5140233;27;20269;-64
2023/08/19 00:27:10;;;;;;;6.88;6.28;;;;;;;;;;5140403;27;20238;-64
2023/08/19 00:29:38;;;;;;;6.18;5.78;;;;;;;;;;5140153;27;20281;-65
2023/08/19 00:32:06;;;;;;;6.53;6.03;;;;;;;;;;5140338;27;20206;-65
2023/08/19 00:34:33;;;;;;;6.88;6.18;;;;;;;;;;5140506;27;20293;-64
2023/08/19 00:37:00;;;;;;;6.82;6.22;;;;;;;;;;5139981;27;20222;-65
2023/08/19 00:39:29;;;;;;;6.43;5.85;;;;;;;;;;5140366;27;20206;-65
2023/08/19 00:41:57;;;;;;;6.03;5.53;;;;;;;;;;5139641;27;20210;-65
2023/08/19 00:44:25;;;;;;;6.35;5.75;;;;;;;;;;5139913;27;20502;-65
2023/08/19 00:46:54;;;;;;;6.10;5.60;;;;;;;;;;5139858;27;20661;-65
2023/08/19 00:49:22;;;;;;;6.47;5.97;;;;;;;;;;5139879;27;20202;-64
2023/08/19 00:51:50;;;;;;;6.25;5.70;;;;;;;;;;5140061;27;20529;-65
2023/08/19 00:54:17;;;;;;;6.50;5.90;;;;;;;;;;5140244;27;20246;-65
2023/08/19 00:56:46;;;;;;;6.55;6.07;;;;;;;;;;5139940;27;20268;-65
2023/08/19 00:59:14;;;;;;;5.88;5.47;;;;;;;;;;5139827;27;20212;-65
2023/08/19 01:01:42;;;;;;;5.93;5.40;;;;;;;;;;5139270;27;20251;-65
2023/08/19 01:04:09;;;;;;;5.60;5.18;;;;;;;;;;5139800;27;20226;-64
2023/08/19 01:06:41;;;;;;;6.28;5.68;;;;;;;;;;5139627;27;20202;-65
2023/08/19 01:09:14;;;;;;;5.90;5.50;;;;;;;;;;5139868;27;20351;-65
2023/08/19 01:11:55;;;;;;;6.35;5.85;;;;;;;;;;5139719;27;20203;-65
2023/08/19 01:14:33;;;;;;;6.43;5.93;;;;;;;;;;5139758;27;20247;-65
2023/08/19 01:17:01;;;;;;;5.80;5.40;;;;;;;;;;5139376;27;20217;-65
2023/08/19 01:19:30;;;;;;;5.85;5.45;;;;;;;;;;5139483;27;20769;-65
2023/08/19 01:22:00;;;;;;;6.18;5.68;;;;;;;;;;5139509;27;20470;-64
2023/08/19 01:24:29;;;;;;;5.88;5.47;;;;;;;;;;5139188;27;20613;-65
2023/08/19 01:26:58;;;;;;;6.25;5.75;;;;;;;;;;5139569;27;20213;-64
2023/08/19 01:29:26;;;;;;;6.22;5.80;;;;;;;;;;5139481;27;20742;-64
2023/08/19 01:31:53;;;;;;;5.93;5.40;;;;;;;;;;5139618;27;20268;-64
2023/08/19 01:34:22;;;;;;;6.03;5.63;;;;;;;;;;5139603;27;20233;-64
2023/08/19 01:36:51;;;;;;;5.80;5.30;;;;;;;;;;5139207;27;20242;-64
2023/08/19 01:39:23;;;;;;;5.80;5.30;;;;;;;;;;5139096;27;20271;-64
2023/08/19 01:41:51;;;;;;;5.10;4.80;;;;;;;;;;5139549;27;20228;-64
2023/08/19 01:44:20;;;;;;;6.15;5.53;;;;;;;;;;5139324;27;20226;-64
2023/08/19 01:46:48;;;;;;;5.88;5.28;;;;;;;;;;5139520;27;20202;-64
2023/08/19 01:49:15;;;;;;;5.60;5.20;;;;;;;;;;5139474;27;20749;-65
2023/08/19 01:51:43;;;;;;;6.32;5.82;;;;;;;;;;5138908;27;20283;-65
2023/08/19 01:54:10;;;;;;;5.80;5.35;;;;;;;;;;5138939;27;20198;-65
2023/08/19 01:56:38;;;;;;;5.57;5.10;;;;;;;;;;5139481;27;20452;-65
2023/08/19 01:59:05;;;;;;;5.55;5.15;;;;;;;;;;5138536;27;20267;-64
2023/08/19 02:01:35;;;;;;;5.40;5.05;;;;;;;;;;5138874;27;20598;-64
2023/08/19 02:04:02;;;;;;;5.72;5.32;;;;;;;;;;5139073;27;20237;-64
2023/08/19 02:06:30;;;;;;;5.70;5.30;;;;;;;;;;5138635;27;20202;-64
2023/08/19 02:08:57;;;;;;;6.38;5.88;;;;;;;;;;5138708;27;20650;-65
2023/08/19 02:11:25;;;;;;;6.07;5.50;;;;;;;;;;5139260;27;20621;-65
2023/08/19 02:13:53;;;;;;;6.10;5.70;;;;;;;;;;5139009;27;20218;-65
2023/08/19 02:16:20;;;;;;;5.90;5.50;;;;;;;;;;5138422;27;20554;-64
2023/08/19 02:18:50;;;;;;;6.05;5.65;;;;;;;;;;5138691;27;20653;-64
2023/08/19 02:21:17;;;;;;;5.50;5.10;;;;;;;;;;5138914;27;20210;-64
2023/08/19 02:23:45;;;;;;;5.60;5.20;;;;;;;;;;5138344;27;20210;-64
2023/08/19 02:26:12;;;;;;;5.80;5.40;;;;;;;;;;5138685;27;20302;-65
2023/08/19 02:28:40;;;;;;;6.00;5.50;;;;;;;;;;5138516;27;20209;-65
2023/08/19 02:31:08;;;;;;;5.85;5.45;;;;;;;;;;5138615;27;20202;-64
2023/08/19 02:33:38;;;;;;;5.97;5.47;;;;;;;;;;5138904;27;20202;-64
2023/08/19 02:36:07;;;;;;;5.95;5.55;;;;;;;;;;5138177;27;20222;-64
2023/08/19 02:38:35;;;;;;;5.65;5.35;;;;;;;;;;5138666;27;20530;-65
2023/08/19 02:41:03;;;;;;;6.15;5.70;;;;;;;;;;5142152;27;20205;-65
2023/08/19 02:43:30;;;;;;;5.75;5.35;;;;;;;;;;5142327;27;20210;-64
2023/08/19 02:45:58;;;;;;;6.03;5.63;;;;;;;;;;5142028;27;20232;-65
2023/08/19 02:48:26;;;;;;;6.00;5.60;;;;;;;;;;5142571;27;20232;-65
2023/08/19 02:50:54;;;;;;;6.30;5.70;;;;;;;;;;5142878;27;20202;-64
2023/08/19 02:53:23;;;;;;;5.70;5.30;;;;;;;;;;5142437;27;20228;-64
2023/08/19 02:55:53;;;;;;;5.65;5.35;;;;;;;;;;5142177;27;20210;-64
2023/08/19 02:58:20;;;;;;;5.85;5.32;;;;;;;;;;5142121;27;20466;-64
2023/08/19 03:00:48;;;;;;;5.72;5.32;;;;;;;;;;5142373;27;20202;-65
2023/08/19 03:03:16;;;;;;;6.13;5.63;;;;;;;;;;5142037;27;20198;-64
2023/08/19 03:05:43;;;;;;;6.25;5.85;;;;;;;;;;5142752;27;20247;-64
2023/08/19 03:08:11;;;;;;;6.18;5.78;;;;;;;;;;5142082;27;20523;-64
2023/08/19 03:10:41;;;;;;;6.65;6.05;;;;;;;;;;5141790;27;20593;-64
2023/08/19 03:13:09;;;;;;;6.03;5.63;;;;;;;;;;5141894;27;20230;-64
2023/08/19 03:15:38;;;;;;;5.85;5.45;;;;;;;;;;5141702;27;20242;-64
2023/08/19 03:18:06;;;;;;;6.00;5.50;;;;;;;;;;5142086;27;20237;-64
2023/08/19 03:20:34;;;;;;;6.38;5.85;;;;;;;;;;5141991;27;20237;-64
2023/08/19 03:23:02;;;;;;;6.40;5.90;;;;;;;;;;5142009;27;20202;-64
2023/08/19 03:25:30;;;;;;;5.90;5.50;;;;;;;;;;5141872;27;20230;-64
2023/08/19 03:27:59;;;;;;;6.63;5.95;;;;;;;;;;5142113;27;20491;-64
2023/08/19 03:30:27;;;;;;;5.93;5.50;;;;;;;;;;5141660;27;20289;-64
2023/08/19 03:32:54;;;;;;;6.10;5.70;;;;;;;;;;5142024;27;20263;-64
2023/08/19 03:35:22;;;;;;;6.10;5.70;;;;;;;;;;5141133;27;20218;-65
2023/08/19 03:37:49;;;;;;;5.75;5.25;;;;;;;;;;5141681;27;20532;-65
2023/08/19 03:40:17;;;;;;;6.20;5.70;;;;;;;;;;5141794;27;20202;-64
2023/08/19 03:42:44;;;;;;;5.70;5.30;;;;;;;;;;5141750;27;20609;-65
2023/08/19 03:45:13;;;;;;;5.82;5.43;;;;;;;;;;5140917;27;20223;-65
2023/08/19 03:47:41;;;;;;;5.35;4.95;;;;;;;;;;5141506;27;20203;-64
2023/08/19 03:50:09;;;;;;;5.40;5.00;;;;;;;;;;5140338;27;20248;-65
2023/08/19 03:52:37;;;;;;;5.22;4.93;;;;;;;;;;5140702;27;20210;-65
2023/08/19 03:55:05;;;;;;;5.07;4.68;;;;;;;;;;5140831;27;20209;-64
2023/08/19 03:57:32;;;;;;;5.07;4.72;;;;;;;;;;5140702;27;20202;-64
2023/08/19 04:00:00;;;;;;;4.90;4.55;;;;;;;;;;5140984;27;20210;-64
2023/08/19 04:02:29;;;;;;;5.05;4.75;;;;;;;;;;5140985;27;20246;-65
2023/08/19 04:05:00;;;;;;;5.50;5.10;;;;;;;;;;5132698;27;20222;-65
2023/08/19 04:07:28;;;;;;;5.63;5.22;;;;;;;;;;5140799;27;20207;-65
2023/08/19 04:09:55;;;;;;;5.82;5.43;;;;;;;;;;5141277;27;20202;-64
2023/08/19 04:12:23;;;;;;;5.70;5.30;;;;;;;;;;5141327;27;20570;-65
2023/08/19 04:14:50;;;;;;;5.47;5.07;;;;;;;;;;5140808;27;20202;-64
2023/08/19 04:17:18;;;;;;;5.47;5.07;;;;;;;;;;5140869;27;20202;-66
2023/08/19 04:19:47;;;;;;;5.90;5.38;;;;;;;;;;5140386;27;20198;-65
2023/08/19 04:22:14;;;;;;;5.38;4.97;;;;;;;;;;5140426;27;20490;-65
2023/08/19 04:24:42;;;;;;;5.85;5.43;;;;;;;;;;5140641;27;20202;-65
2023/08/19 04:27:09;;;;;;;5.90;5.50;;;;;;;;;;5140147;27;20202;-65
2023/08/19 04:29:36;;;;;;;5.47;5.07;;;;;;;;;;5140596;27;20203;-64
2023/08/19 04:32:04;;;;;;;5.60;5.18;;;;;;;;;;5140699;27;20237;-65
2023/08/19 04:34:32;;;;;;;5.70;5.20;;;;;;;;;;5140374;27;20202;-65
2023/08/19 04:37:00;;;;;;;5.80;5.40;;;;;;;;;;5140246;27;20510;-64
2023/08/19 04:39:28;;;;;;;5.25;4.85;;;;;;;;;;5140925;27;20590;-64
2023/08/19 04:41:55;;;;;;;5.82;5.43;;;;;;;;;;5140377;27;20213;-65
2023/08/19 04:44:22;;;;;;;6.10;5.60;;;;;;;;;;5140293;27;20202;-65
2023/08/19 04:46:50;;;;;;;5.70;5.30;;;;;;;;;;5140342;27;20639;-64
2023/08/19 04:49:17;;;;;;;5.88;5.47;;;;;;;;;;5140870;27;20229;-64
2023/08/19 04:51:44;;;;;;;6.20;5.68;;;;;;;;;;5140483;27;20194;-65
2023/08/19 04:54:13;;;;;;;5.57;5.18;;;;;;;;;;5140462;27;20213;-64
2023/08/19 04:56:40;;;;;;;5.28;4.93;;;;;;;;;;5139993;27;20232;-65
2023/08/19 04:59:07;;;;;;;6.10;5.60;;;;;;;;;;5140741;27;20214;-64
2023/08/19 05:01:35;;;;;;;5.80;5.40;;;;;;;;;;5139708;27;20613;-64
2023/08/19 05:04:02;;;;;;;5.50;5.10;;;;;;;;;;5139941;27;20597;-64
2023/08/19 05:06:30;;;;;;;5.75;5.32;;;;;;;;;;5139318;27;20684;-65
2023/08/19 05:08:57;;;;;;;6.05;5.65;;;;;;;;;;5140075;27;20209;-64
2023/08/19 05:11:26;;;;;;;5.75;5.35;;;;;;;;;;5139262;27;20202;-64
2023/08/19 05:13:53;;;;;;;6.22;5.65;;;;;;;;;;5140079;27;20578;-66
2023/08/19 05:16:21;;;;;;;6.00;5.57;;;;;;;;;;5139901;27;20225;-65
2023/08/19 05:18:52;;;;;;;6.00;5.60;;;;;;;;;;5139302;27;20202;-65
2023/08/19 05:21:19;;;;;;;6.13;5.72;;;;;;;;;;5139642;27;20210;-65
2023/08/19 05:23:46;;;;;;;6.35;5.85;;;;;;;;;;5139273;27;20230;-65
2023/08/19 05:26:14;;;;;;;6.57;6.03;;;;;;;;;;5139255;27;20233;-65
2023/08/19 05:28:42;;;;;;;6.72;6.07;;;;;;;;;;5138964;27;20633;-64
2023/08/19 05:31:10;;;;;;;6.10;5.60;;;;;;;;;;5139025;27;20213;-64
2023/08/19 05:33:37;;;;;;;6.25;5.75;;;;;;;;;;5139185;27;20202;-64
2023/08/19 05:36:04;;;;;;;7.03;6.38;;;;;;;;;;5138599;27;20233;-64
2023/08/19 05:38:32;;;;;;;6.70;6.20;;;;;;;;;;5138494;27;20221;-64
2023/08/19 05:41:00;;;;;;;6.15;5.75;;;;;;;;;;5139110;27;20206;-64
2023/08/19 05:43:27;;;;;;;6.72;6.22;;;;;;;;;;5139379;27;20210;-64
2023/08/19 05:45:56;;;;;;;6.60;6.10;;;;;;;;;;5139087;27;20226;-65
2023/08/19 05:48:23;;;;;;;6.53;6.13;;;;;;;;;;5138505;27;20209;-64
2023/08/19 05:50:51;;;;;;;6.80;6.30;;;;;;;;;;5138524;27;20205;-64
2023/08/19 05:53:18;;;;;;;6.75;6.25;;;;;;;;;;5138532;27;20202;-64
2023/08/19 05:55:47;;;;;;;6.60;6.10;;;;;;;;;;5139180;27;20233;-64
2023/08/19 05:58:14;;;;;;;6.70;6.10;;;;;;;;;;5138836;27;20609;-65
2023/08/19 06:00:42;;;;;;;6.53;6.03;;;;;;;;;;5138285;27;20240;-65
2023/08/19 06:03:11;;;;;;;6.68;6.28;;;;;;;;;;5138747;27;20490;-64
2023/08/19 06:05:38;;;;;;;7.00;6.32;;;;;;;;;;5138163;27;20510;-65
2023/08/19 06:08:06;;;;;;;6.65;6.05;;;;;;;;;;5138436;27;20213;-64
2023/08/19 06:10:33;;;;;;;7.00;6.40;;;;;;;;;;5138359;27;20194;-64
2023/08/19 06:13:01;;;;;;;7.10;6.50;;;;;;;;;;5137769;27;20202;-65
2023/08/19 06:15:29;;;;;;;7.13;6.60;;;;;;;;;;5138033;28;20198;-65
2023/08/19 06:17:56;;;;;;;7.30;6.80;;;;;;;;;;5138175;27;20213;-65
2023/08/19 06:20:25;;;;;;;7.43;6.93;;;;;;;;;;5137975;27;20511;-65
2023/08/19 06:22:52;;;;;;;7.93;7.22;;;;;;;;;;5137551;27;20205;-64
2023/08/19 06:25:19;;;;;;;7.32;6.82;;;;;;;;;;5137942;27;20206;-65
2023/08/19 06:27:47;;;;;;;7.07;6.65;;;;;;;;;;5137926;28;20236;-64
2023/08/19 06:30:15;;;;;;;7.15;6.65;;;;;;;;;;5137924;27;20202;-64
2023/08/19 06:32:42;;;;;;;7.05;6.55;;;;;;;;;;5137593;27;20213;-65
2023/08/19 06:35:10;;;;;;;7.43;6.82;;;;;;;;;;5137302;27;20202;-65
2023/08/19 06:37:43;;;;;;;7.60;7.10;;;;;;;;;;5137621;27;20742;-65
2023/08/19 06:40:14;;;;;;;7.78;7.28;;;;;;;;;;5137638;27;20229;-65
2023/08/19 06:42:43;;;;;;;7.85;7.18;;;;;;;;;;5137466;27;20214;-65
2023/08/19 06:45:11;;;;;;;7.57;6.97;;;;;;;;;;5137746;27;20214;-65
2023/08/19 06:47:39;;;;;;;8.02;7.32;;;;;;;;;;5137264;28;20253;-65
2023/08/19 06:50:07;;;;;;;7.70;7.20;;;;;;;;;;5137293;27;20228;-64
2023/08/19 06:52:35;;;;;;;7.60;7.00;;;;;;;;;;5136812;27;20212;-65
2023/08/19 06:55:04;;;;;;;7.43;6.93;;;;;;;;;;5136178;27;20195;-64
2023/08/19 06:57:35;;;;;;;7.93;7.38;;;;;;;;;;5137417;27;20266;-64
2023/08/19 07:00:05;;;;;;;8.50;7.90;;;;;;;;;;5136592;27;20207;-64
2023/08/19 07:02:35;;;;;;;8.40;7.80;;;;;;;;;;5137310;27;20202;-64
2023/08/19 07:05:04;;;;;;;8.20;7.60;;;;;;;;;;5137539;27;20225;-65
2023/08/19 07:07:33;;;;;;;8.40;7.80;;;;;;;;;;5137127;27;20333;-64
2023/08/19 07:10:00;;;;;;;8.18;7.57;;;;;;;;;;5137626;27;20202;-64
2023/08/19 07:12:29;;;;;;;7.50;7.00;;;;;;;;;;5135487;27;20212;-64
2023/08/19 07:14:57;;;;;;;8.43;7.78;;;;;;;;;;5136837;28;20210;-64
2023/08/19 07:17:27;;;;;;;8.20;7.60;;;;;;;;;;5137180;27;20589;-64
2023/08/19 07:19:55;;;;;;;7.40;6.90;;;;;;;;;;5137285;27;20202;-65
2023/08/19 07:22:22;;;;;;;8.23;7.63;;;;;;;;;;5136734;27;20202;-64
2023/08/19 07:24:52;;;;;;;8.50;7.90;;;;;;;;;;5137981;27;20206;-64
2023/08/19 07:27:22;;;;;;;8.07;7.57;;;;;;;;;;5141032;27;20229;-64
2023/08/19 07:29:51;;;;;;;8.18;7.63;;;;;;;;;;5141158;27;20202;-64
2023/08/19 07:32:20;;;;;;;8.32;7.72;;;;;;;;;;5141329;27;20270;-64
2023/08/19 07:34:47;;;;;;;7.53;7.03;;;;;;;;;;5140710;27;20202;-64
2023/08/19 07:37:14;;;;;;;7.80;7.20;;;;;;;;;;5140083;27;20233;-64
2023/08/19 07:39:42;;;;;;;8.13;7.53;;;;;;;;;;5139843;27;20202;-66
2023/08/19 07:42:09;;;;;;;9.15;8.55;;;;;;;;;;5139804;27;20206;-65
2023/08/19 07:44:37;;;;;;;8.80;8.15;;;;;;;;;;5139524;27;20202;-65
2023/08/19 07:47:06;;;;;;;8.80;8.15;;;;;;;;;;5139458;27;20222;-65
2023/08/19 07:49:33;;;;;;;9.65;8.93;;;;;;;;;;5139808;27;20201;-65
2023/08/19 07:52:00;;;;;;;9.07;8.38;;;;;;;;;;5139569;27;20578;-64
2023/08/19 07:54:27;;;;;;;9.52;8.82;;;;;;;;;;5139470;27;20233;-65
2023/08/19 07:56:57;;;;;;;9.45;8.75;;;;;;;;;;5139588;27;20206;-65
2023/08/19 07:59:25;;;;;;;8.95;8.35;;;;;;;;;;5139046;27;20520;-65
2023/08/19 08:01:53;;;;;;;9.85;9.15;;;;;;;;;;5139904;27;20264;-65
2023/08/19 08:04:22;;;;;;;9.98;9.27;;;;;;;;;;5138575;27;20206;-65
2023/08/19 08:06:50;;;;;;;10.55;9.75;;;;;;;;;;5139070;27;20226;-65
2023/08/19 08:09:17;;;;;;;10.50;9.63;;;;;;;;;;5138835;27;20213;-65
2023/08/19 08:11:47;;;;;;;10.65;9.95;;;;;;;;;;5138838;27;20202;-65
2023/08/19 08:14:15;;;;;;;10.93;10.13;;;;;;;;;;5138602;27;20289;-65
2023/08/19 08:16:42;;;;;;;10.35;9.57;;;;;;;;;;5139270;27;20190;-65
2023/08/19 08:19:10;;;;;;;10.55;9.75;;;;;;;;;;5139557;27;20513;-64
2023/08/19 08:21:38;;;;;;;11.13;10.32;;;;;;;;;;5138292;27;20717;-64
2023/08/19 08:24:06;;;;;;;10.90;9.95;;;;;;;;;;5138257;27;20199;-64
2023/08/19 08:26:34;;;;;;;10.70;9.90;;;;;;;;;;5138920;27;20222;-64
2023/08/19 08:29:01;;;;;;;10.15;9.35;;;;;;;;;;5138657;27;20203;-65
2023/08/19 08:31:28;;;;;;;10.80;9.95;;;;;;;;;;5138154;27;20203;-65
2023/08/19 08:33:56;;;;;;;10.48;9.77;;;;;;;;;;5137732;27;20422;-64
2023/08/19 08:36:23;;;;;;;10.35;9.60;;;;;;;;;;5137780;27;20234;-65
2023/08/19 08:38:52;;;;;;;10.18;9.48;;;;;;;;;;5138412;27;20751;-65
2023/08/19 08:41:19;;;;;;;10.88;10.07;;;;;;;;;;5139182;27;20213;-65
2023/08/19 08:43:48;;;;;;;10.57;9.77;;;;;;;;;;5139422;27;20501;-64
2023/08/19 08:46:16;;;;;;;10.10;9.38;;;;;;;;;;5137504;27;20761;-65
2023/08/19 08:48:44;;;;;;;10.50;9.70;;;;;;;;;;5137835;27;20238;-64
2023/08/19 08:51:12;;;;;;;10.15;9.30;;;;;;;;;;5137470;27;20201;-64
2023/08/19 08:53:40;;;;;;;9.48;8.77;;;;;;;;;;5137282;27;20213;-65
2023/08/19 08:56:09;;;;;;;9.88;9.18;;;;;;;;;;5138141;27;20312;-65
2023/08/19 08:58:36;;;;;;;9.88;9.20;;;;;;;;;;5138152;27;20693;-64
2023/08/19 09:01:04;;;;;;;10.13;9.32;;;;;;;;;;5137830;27;20221;-64
2023/08/19 09:03:32;;;;;;;9.00;8.30;;;;;;;;;;5137672;27;20282;-64
2023/08/19 09:06:02;;;;;;;8.95;8.27;;;;;;;;;;5136338;27;20582;-64
2023/08/19 09:08:32;;;;;;;9.07;8.38;;;;;;;;;;5136523;27;20593;-64
2023/08/19 09:11:01;;;;;;;9.02;8.32;;;;;;;;;;5137402;27;20490;-65
2023/08/19 09:13:30;;;;;;;9.00;8.40;;;;;;;;;;5137647;27;20258;-64
2023/08/19 09:15:58;;;;;;;8.57;7.93;;;;;;;;;;5137488;27;20202;-64
2023/08/19 09:18:26;;;;;;;8.50;7.90;;;;;;;;;;5137627;27;20663;-64
2023/08/19 09:20:54;;;;;;;8.38;7.78;;;;;;;;;;5136962;27;20202;-65
2023/08/19 09:23:21;;;;;;;8.77;8.07;;;;;;;;;;5137805;27;20202;-64
2023/08/19 09:25:48;;;;;;;7.82;7.22;;;;;;;;;;5137467;27;20210;-64
2023/08/19 09:28:18;;;;;;;8.40;7.72;;;;;;;;;;5137906;27;20230;-64
2023/08/19 09:30:46;;;;;;;8.25;7.65;;;;;;;;;;5137121;27;20294;-65
2023/08/19 09:33:19;;;;;;;7.90;7.40;;;;;;;;;;5136550;27;20194;-65
2023/08/19 09:35:48;;;;;;;7.85;7.28;;;;;;;;;;5136397;27;20566;-64
2023/08/19 09:38:21;;;;;;;8.15;7.55;;;;;;;;;;5136861;27;20802;-65
2023/08/19 09:40:58;;;;;;;8.52;7.75;;;;;;;;;;5136148;27;20198;-64
2023/08/19 09:43:25;;;;;;;7.78;7.18;;;;;;;;;;5117246;27;20234;-64
2023/08/19 09:45:56;;;;;;;8.25;7.65;;;;;;;;;;5115954;28;20203;-64
2023/08/19 09:48:23;;;;;;;8.20;7.60;;;;;;;;;;5115957;28;20250;-64
2023/08/19 09:50:51;;;;;;;7.72;7.22;;;;;;;;;;5116176;28;20195;-64
2023/08/19 09:53:19;;;;;;;8.38;7.68;;;;;;;;;;5116268;28;20199;-64
2023/08/19 09:55:47;;;;;;;7.80;7.30;;;;;;;;;;5115727;28;20203;-64
2023/08/19 09:58:14;;;;;;;8.50;7.80;;;;;;;;;;5116340;28;20614;-64
2023/08/19 10:00:42;;;;;;;7.60;7.10;;;;;;;;;;5116406;28;20203;-64
2023/08/19 10:03:11;;;;;;;7.82;7.22;;;;;;;;;;5116077;28;20216;-64
2023/08/19 10:05:40;;;;;;;8.32;7.63;;;;;;;;;;5116127;28;20602;-64
2023/08/19 10:08:09;;;;;;;7.45;6.95;;;;;;;;;;5115766;28;20226;-64
2023/08/19 10:10:39;;;;;;;7.97;7.40;;;;;;;;;;5116240;28;20279;-64
2023/08/19 10:13:09;;;;;;;7.55;7.05;;;;;;;;;;5114943;28;20203;-64
2023/08/19 10:15:38;;;;;;;7.93;7.32;;;;;;;;;;5115455;28;20311;-64
2023/08/19 10:18:08;;;;;;;7.43;6.93;;;;;;;;;;5115265;28;20195;-64
2023/08/19 10:20:37;;;;;;;7.82;7.28;;;;;;;;;;5115351;28;20202;-64
2023/08/19 10:23:07;;;;;;;7.85;7.25;;;;;;;;;;5116177;28;20498;-64
2023/08/19 10:25:34;;;;;;;6.95;6.40;;;;;;;;;;5116379;28;20199;-64
2023/08/19 10:28:08;;;;;;;7.72;7.13;;;;;;;;;;5115429;28;20233;-64
2023/08/19 10:30:36;;;;;;;6.40;6.00;;;;;;;;;;5116226;28;20208;-65
2023/08/19 10:33:05;;;;;;;6.50;6.10;;;;;;;;;;5115172;28;20618;-64
2023/08/19 10:35:51;;;;;;;6.60;6.18;;;;;;;;;;5114682;28;20239;-65
2023/08/19 10:38:20;;;;;;;6.30;5.90;;;;;;;;;;5114396;28;20578;-64
2023/08/19 10:41:02;;;;;;;6.18;5.68;;;;;;;;;;5116093;28;20579;-65
2023/08/19 10:43:29;;;;;;;6.25;5.85;;;;;;;;;;5115805;28;20203;-65
2023/08/19 10:45:59;;;;;;;6.32;5.90;;;;;;;;;;5116131;28;20268;-65
2023/08/19 10:48:33;;;;;;;6.82;6.30;;;;;;;;;;5115651;28;20226;-64
2023/08/19 10:51:00;;;;;;;6.00;5.60;;;;;;;;;;5114916;28;20203;-65
2023/08/19 10:53:29;;;;;;;6.22;5.72;;;;;;;;;;5115437;28;20214;-65
2023/08/19 10:55:56;;;;;;;6.45;5.95;;;;;;;;;;5115150;28;20207;-65
2023/08/19 10:58:24;;;;;;;6.65;6.15;;;;;;;;;;5115725;28;20199;-65
2023/08/19 11:00:51;;;;;;;6.55;6.05;;;;;;;;;;5117282;28;20477;-65
2023/08/19 11:03:19;;;;;;;6.57;6.05;;;;;;;;;;5119093;28;20206;-65
2023/08/19 11:05:49;;;;;;;6.68;6.07;;;;;;;;;;5119752;28;20313;-65
2023/08/19 11:08:17;;;;;;;6.05;5.65;;;;;;;;;;5118929;28;20642;-65
2023/08/19 11:10:47;;;;;;;6.95;6.35;;;;;;;;;;5119823;28;20203;-65
2023/08/19 11:13:15;;;;;;;17.35;7.75;;;;;;;;;;5119858;28;20225;-65
2023/08/19 11:15:42;;;;;;;7.28;6.50;;;;;;;;;;5118798;28;20203;-65
2023/08/19 11:18:09;;;;;;;12.50;6.82;;;;;;;;;;5118938;28;20199;-65
2023/08/19 11:20:37;;;;;;;6.97;6.38;;;;;;;;;;5119711;28;20459;-65
2023/08/19 11:23:05;;;;;;;7.05;6.50;;;;;;;;;;5119587;28;20567;-67
2023/08/19 11:25:36;;;;;;;6.65;6.15;;;;;;;;;;5118852;28;20237;-65
2023/08/19 11:28:05;;;;;;;6.72;6.22;;;;;;;;;;5130292;27;20229;-65
2023/08/19 11:30:33;;;;;;;6.60;6.10;;;;;;;;;;5140289;27;20269;-65
2023/08/19 11:33:01;;;;;;;6.60;6.10;;;;;;;;;;5140018;27;20209;-65
2023/08/19 11:35:29;;;;;;;6.55;6.05;;;;;;;;;;5139856;27;20661;-65
2023/08/19 11:37:57;;;;;;;6.45;5.95;;;;;;;;;;5140245;27;20199;-65
2023/08/19 11:40:33;;;;;;;6.72;6.03;;;;;;;;;;5140434;27;20210;-65
2023/08/19 11:43:08;;;;;;;6.57;5.95;;;;;;;;;;5139906;27;20463;-66
2023/08/19 11:45:37;;;;;;;6.00;5.50;;;;;;;;;;5139148;27;20236;-66
2023/08/19 11:48:05;;;;;;;6.68;6.00;;;;;;;;;;5139604;27;20322;-65
2023/08/19 11:50:34;;;;;;;6.57;5.97;;;;;;;;;;5138827;27;20220;-66
2023/08/19 11:53:02;;;;;;;6.25;5.75;;;;;;;;;;5138813;27;20241;-65
2023/08/19 11:55:30;;;;;;;6.32;5.78;;;;;;;;;;5139168;27;20237;-65
2023/08/19 11:57:57;;;;;;;6.32;5.78;;;;;;;;;;5138947;27;20238;-66
2023/08/19 12:00:27;;;;;;;6.22;5.72;;;;;;;;;;5139272;27;20194;-65
2023/08/19 12:02:55;;;;;;;6.85;6.13;;;;;;;;;;5138726;27;20228;-65
2023/08/19 12:05:23;;;;;;;6.63;6.13;;;;;;;;;;5138773;27;20218;-65
2023/08/19 12:07:50;;;;;;;6.00;5.57;;;;;;;;;;5138903;27;20230;-65
2023/08/19 12:10:18;;;;;;;6.22;5.72;;;;;;;;;;5138756;27;20198;-65
2023/08/19 12:12:58;;;;;;;6.68;6.20;;;;;;;;;;5136451;27;20202;-66
2023/08/19 12:15:26;;;;;;;7.18;6.15;;;;;;;;;;5139109;27;20266;-65
2023/08/19 12:17:54;;;;;;;6.25;5.80;;;;;;;;;;5138919;27;20201;-65
2023/08/19 12:20:22;;;;;;;6.63;6.13;;;;;;;;;;5138727;27;20206;-65
2023/08/19 12:22:49;;;;;;;6.38;5.90;;;;;;;;;;5138790;27;20202;-65
2023/08/19 12:25:16;;;;;;;6.30;5.75;;;;;;;;;;5138352;27;20202;-65
2023/08/19 12:27:44;;;;;;;6.40;5.80;;;;;;;;;;5138314;27;20225;-65
2023/08/19 12:30:11;;;;;;;6.93;6.35;;;;;;;;;;5137926;27;20198;-65
2023/08/19 12:32:39;;;;;;;6.47;5.97;;;;;;;;;;5137302;27;20199;-65
2023/08/19 12:35:08;;;;;;;7.03;6.43;;;;;;;;;;5138207;27;20210;-67
2023/08/19 12:37:35;;;;;;;6.13;5.63;;;;;;;;;;5138173;27;20483;-65
2023/08/19 12:40:03;;;;;;;6.82;6.32;;;;;;;;;;5139235;27;20210;-65
2023/08/19 12:42:30;;;;;;;7.15;6.47;;;;;;;;;;5138509;27;20203;-65
2023/08/19 12:44:58;;;;;;;6.85;6.32;;;;;;;;;;5137893;27;20510;-65
2023/08/19 12:47:25;;;;;;;7.45;6.82;;;;;;;;;;5138253;27;20202;-65
2023/08/19 12:49:53;;;;;;;6.95;6.38;;;;;;;;;;5138439;27;20202;-65
2023/08/19 12:52:22;;;;;;;6.82;6.32;;;;;;;;;;5138107;27;20259;-66
2023/08/19 12:54:49;;;;;;;6.50;5.95;;;;;;;;;;5137736;27;20202;-65
2023/08/19 12:57:16;;;;;;;6.82;6.32;;;;;;;;;;5137249;27;20206;-66
2023/08/19 12:59:45;;;;;;;6.50;5.97;;;;;;;;;;5137758;27;20209;-65
2023/08/19 13:02:12;;;;;;;6.85;6.30;;;;;;;;;;5137470;27;20208;-65
2023/08/19 13:04:39;;;;;;;6.13;5.63;;;;;;;;;;5136598;27;20209;-66
2023/08/19 13:07:07;;;;;;;6.40;5.90;;;;;;;;;;5137964;27;20239;-65
2023/08/19 13:09:35;;;;;;;6.25;5.80;;;;;;;;;;5136496;27;20218;-65
2023/08/19 13:12:03;;;;;;;6.63;6.13;;;;;;;;;;5137178;27;20281;-65
2023/08/19 13:14:30;;;;;;;6.40;5.82;;;;;;;;;;5136701;27;20590;-66
2023/08/19 13:16:57;;;;;;;6.20;5.78;;;;;;;;;;5137110;27;20202;-65
2023/08/19 13:19:25;;;;;;;6.07;5.68;;;;;;;;;;5137292;27;20217;-65
2023/08/19 13:21:53;;;;;;;6.43;5.97;;;;;;;;;;5136694;27;20620;-65
2023/08/19 13:24:21;;;;;;;6.50;6.00;;;;;;;;;;5136463;27;20263;-65
2023/08/19 13:26:49;;;;;;;6.53;6.03;;;;;;;;;;5137541;27;20197;-65
2023/08/19 13:29:17;;;;;;;6.05;5.65;;;;;;;;;;5137302;27;20226;-65
2023/08/19 13:31:44;;;;;;;6.82;6.32;;;;;;;;;;5136880;27;20701;-65
2023/08/19 13:34:11;;;;;;;6.60;6.10;;;;;;;;;;5137392;27;20205;-65
2023/08/19 13:36:39;;;;;;;6.22;5.75;;;;;;;;;;5136875;27;20226;-66
2023/08/19 13:39:06;;;;;;;6.30;5.90;;;;;;;;;;5136649;27;20214;-65
2023/08/19 13:41:33;;;;;;;6.07;5.50;;;;;;;;;;5137769;27;20217;-66
2023/08/19 13:44:02;;;;;;;7.10;6.60;;;;;;;;;;5136792;27;20218;-65
2023/08/19 13:46:29;;;;;;;6.65;6.00;;;;;;;;;;5136261;27;20221;-66
2023/08/19 13:48:57;;;;;;;6.40;5.90;;;;;;;;;;5136848;27;20249;-65
2023/08/19 13:51:24;;;;;;;6.30;5.78;;;;;;;;;;5136866;27;20202;-66
2023/08/19 13:53:51;;;;;;;6.80;6.30;;;;;;;;;;5137276;27;20215;-65
2023/08/19 13:56:19;;;;;;;6.40;5.90;;;;;;;;;;5137262;27;20202;-65
2023/08/19 13:58:46;;;;;;;6.93;6.32;;;;;;;;;;5135939;27;20193;-65
2023/08/19 14:01:16;;;;;;;6.78;6.28;;;;;;;;;;5136937;27;20562;-66
2023/08/19 14:03:43;;;;;;;6.30;5.80;;;;;;;;;;5137071;27;20313;-65
2023/08/19 14:06:11;;;;;;;7.00;6.40;;;;;;;;;;5137037;27;20216;-65
2023/08/19 14:08:39;;;;;;;6.10;5.60;;;;;;;;;;5136465;27;20233;-66
2023/08/19 14:11:08;;;;;;;6.57;5.93;;;;;;;;;;5137021;27;20198;-65
2023/08/19 14:13:35;;;;;;;6.30;5.80;;;;;;;;;;5136737;27;20201;-65
2023/08/19 14:16:03;;;;;;;6.70;6.10;;;;;;;;;;5136920;27;20213;-65
2023/08/19 14:18:31;;;;;;;6.28;5.75;;;;;;;;;;5136063;27;20209;-65
2023/08/19 14:20:59;;;;;;;6.20;5.70;;;;;;;;;;5136840;28;20210;-65
2023/08/19 14:23:26;;;;;;;5.95;5.38;;;;;;;;;;5136700;28;20502;-65
2023/08/19 14:25:53;;;;;;;6.30;5.80;;;;;;;;;;5137118;28;20202;-65
2023/08/19 14:28:20;;;;;;;6.10;5.60;;;;;;;;;;5136160;28;20225;-65
2023/08/19 14:30:48;;;;;;;6.70;6.18;;;;;;;;;;5136638;28;20198;-65
2023/08/19 14:33:15;;;;;;;6.00;5.60;;;;;;;;;;5136473;28;20210;-65
2023/08/19 14:35:45;;;;;;;6.10;5.60;;;;;;;;;;5137873;27;20233;-65
2023/08/19 14:38:12;;;;;;;5.72;5.32;;;;;;;;;;5140080;27;20198;-65
2023/08/19 14:40:40;;;;;;;5.88;5.30;;;;;;;;;;5139883;27;20237;-65
2023/08/19 14:43:08;;;;;;;6.22;5.72;;;;;;;;;;5140237;27;20209;-65
2023/08/19 14:45:35;;;;;;;5.85;5.15;;;;;;;;;;5141092;27;20563;-65
2023/08/19 14:48:02;;;;;;;6.15;5.55;;;;;;;;;;5140087;27;20202;-65